Time;durP1;ratioP1;P1;durP2;ratioP2;P2;SDS_P1;SDS_P2;PMS_P1;PMS_P2;Temp;Humidity;BMP_temperature;BMP_pressure;BME280_temperature;BME280_humidity;BME280_pressure;Samples;Min_cycle;Max_cycle;Signal;HPM_P1;HPM_P2
2021/04/14 00:00:20;;;;;;;5.93;5.43;;;5.30;99.90;;;;;;5008335;28;20495;-70
2021/04/14 00:02:45;;;;;;;6.07;5.47;;;5.30;99.90;;;;;;5007821;28;20212;-69
2021/04/14 00:05:12;;;;;;;6.10;5.50;;;5.30;99.90;;;;;;5005073;28;20471;-70
2021/04/14 00:07:39;;;;;;;7.90;6.23;;;5.30;99.90;;;;;;5006782;28;20231;-68
2021/04/14 00:10:06;;;;;;;8.50;6.20;;;5.30;99.90;;;;;;5006441;28;20443;-68
2021/04/14 00:12:32;;;;;;;7.00;5.33;;;5.30;99.90;;;;;;5011682;28;20465;-70
2021/04/14 00:14:57;;;;;;;7.70;5.40;;;5.30;99.90;;;;;;5001695;28;20504;-71
2021/04/14 00:17:23;;;;;;;6.60;5.93;;;5.30;99.90;;;;;;5008408;28;20699;-69
2021/04/14 00:19:49;;;;;;;5.80;5.30;;;5.20;99.90;;;;;;4999230;28;20185;-70
2021/04/14 00:22:14;;;;;;;10.80;5.90;;;5.20;99.90;;;;;;5006735;28;20188;-70
2021/04/14 00:24:40;;;;;;;6.93;5.50;;;5.20;99.90;;;;;;5002409;28;20407;-71
2021/04/14 00:27:06;;;;;;;7.03;5.73;;;5.10;99.90;;;;;;5002895;28;20193;-72
2021/04/14 00:29:31;;;;;;;10.30;5.53;;;5.10;99.90;;;;;;5002909;28;20197;-69
2021/04/14 00:31:57;;;;;;;6.13;5.63;;;5.00;99.90;;;;;;5004807;28;20938;-70
2021/04/14 00:34:22;;;;;;;7.40;6.03;;;4.90;99.90;;;;;;5006797;28;20243;-68
2021/04/14 00:36:49;;;;;;;6.83;6.10;;;4.90;99.90;;;;;;5009426;28;20643;-70
2021/04/14 00:39:18;;;;;;;7.57;5.87;;;4.90;99.90;;;;;;4999139;28;20247;-69
2021/04/14 00:41:45;;;;;;;9.50;5.90;;;4.80;99.90;;;;;;5004082;28;20771;-70
2021/04/14 00:44:11;;;;;;;6.17;5.57;;;4.70;99.90;;;;;;5000554;28;20501;-70
2021/04/14 00:46:38;;;;;;;7.10;6.40;;;4.70;99.90;;;;;;5001093;28;20444;-72
2021/04/14 00:49:04;;;;;;;11.67;6.80;;;4.70;99.90;;;;;;5004007;28;20443;-68
2021/04/14 00:51:31;;;;;;;6.87;6.17;;;4.70;99.90;;;;;;5000106;28;20443;-69
2021/04/14 00:53:56;;;;;;;6.67;5.93;;;4.60;99.90;;;;;;5003080;28;20252;-70
2021/04/14 00:56:22;;;;;;;6.77;5.70;;;4.60;99.90;;;;;;5005258;28;20432;-70
2021/04/14 00:58:48;;;;;;;6.77;5.23;;;4.60;99.90;;;;;;5006109;28;20272;-70
2021/04/14 01:01:14;;;;;;;6.70;6.03;;;4.60;99.90;;;;;;5006193;28;20331;-71
2021/04/14 01:03:39;;;;;;;8.00;5.63;;;4.60;99.90;;;;;;5003139;28;20217;-71
2021/04/14 01:06:07;;;;;;;8.43;6.30;;;4.60;99.90;;;;;;5005096;28;20246;-72
2021/04/14 01:08:34;;;;;;;5.83;5.30;;;4.60;99.90;;;;;;5005376;28;20437;-69
2021/04/14 01:11:00;;;;;;;6.30;5.40;;;4.60;99.90;;;;;;5005414;28;21008;-70
2021/04/14 01:13:26;;;;;;;6.00;5.50;;;4.60;99.90;;;;;;5003405;28;21010;-69
2021/04/14 01:15:52;;;;;;;7.13;6.43;;;4.60;99.90;;;;;;5004882;28;20494;-73
2021/04/14 01:18:21;;;;;;;6.83;5.53;;;4.60;99.90;;;;;;5004108;28;20177;-71
2021/04/14 01:20:47;;;;;;;6.77;6.03;;;4.50;99.90;;;;;;5005751;28;20283;-71
2021/04/14 01:23:13;;;;;;;6.03;5.40;;;4.50;99.90;;;;;;5004705;28;20468;-70
2021/04/14 01:25:41;;;;;;;6.40;5.80;;;4.50;99.90;;;;;;5006585;28;20815;-70
2021/04/14 01:28:37;;;;;;;6.70;5.97;;;4.40;99.90;;;;;;5009567;28;20181;-70
2021/04/14 01:31:05;;;;;;;5.73;5.23;;;4.40;99.90;;;;;;5003644;28;20514;-71
2021/04/14 01:33:33;;;;;;;6.60;5.90;;;4.40;99.90;;;;;;5002607;28;20501;-70
2021/04/14 01:36:01;;;;;;;6.47;5.80;;;4.40;99.90;;;;;;5005551;28;20475;-72
2021/04/14 01:38:27;;;;;;;6.80;6.20;;;4.30;99.90;;;;;;5004611;28;20793;-69
2021/04/14 01:40:53;;;;;;;6.40;5.80;;;4.30;99.90;;;;;;5004955;28;20456;-71
2021/04/14 01:43:18;;;;;;;6.07;5.40;;;4.30;99.90;;;;;;5001761;28;20468;-70
2021/04/14 01:45:46;;;;;;;7.47;6.33;;;4.20;99.90;;;;;;5004646;28;20185;-70
2021/04/14 01:48:13;;;;;;;6.73;6.13;;;4.20;99.90;;;;;;5005485;28;20196;-70
2021/04/14 01:50:39;;;;;;;8.40;6.47;;;4.10;99.90;;;;;;5006909;28;20449;-70
2021/04/14 01:53:07;;;;;;;6.40;5.90;;;4.10;99.90;;;;;;5001706;28;20571;-70
2021/04/14 01:55:33;;;;;;;6.10;5.50;;;4.10;99.90;;;;;;5004502;28;20448;-71
2021/04/14 01:58:00;;;;;;;8.77;6.30;;;4.10;99.90;;;;;;5002777;28;21078;-69
2021/04/14 02:00:42;;;;;;;6.73;6.13;;;4.10;99.90;;;;;;5004512;28;20498;-72
2021/04/14 02:03:08;;;;;;;8.53;6.13;;;4.00;99.90;;;;;;5001457;28;20475;-73
2021/04/14 02:05:33;;;;;;;6.70;6.00;;;3.80;99.90;;;;;;5001566;28;20448;-70
2021/04/14 02:08:01;;;;;;;8.43;5.47;;;3.80;99.90;;;;;;5003994;28;20451;-70
2021/04/14 02:10:29;;;;;;;7.47;6.20;;;3.80;99.90;;;;;;5003829;28;20189;-73
2021/04/14 02:12:56;;;;;;;8.53;5.73;;;3.70;99.90;;;;;;5003700;28;21145;-70
2021/04/14 02:15:27;;;;;;;8.70;6.63;;;3.60;99.90;;;;;;5004130;28;20468;-71
2021/04/14 02:17:53;;;;;;;6.90;4.90;;;3.60;99.90;;;;;;5002455;28;20832;-70
2021/04/14 02:20:19;;;;;;;8.67;5.97;;;3.60;99.90;;;;;;5000210;28;20499;-70
2021/04/14 02:22:45;;;;;;;5.53;5.03;;;3.60;99.90;;;;;;5003877;28;20913;-70
2021/04/14 02:25:12;;;;;;;8.53;5.20;;;3.50;99.90;;;;;;5009117;28;20444;-69
2021/04/14 02:27:39;;;;;;;7.47;5.80;;;3.60;99.90;;;;;;5014118;28;20264;-71
2021/04/14 02:30:15;;;;;;;5.70;5.07;;;3.60;99.90;;;;;;5009751;28;20981;-70
2021/04/14 02:32:41;;;;;;;5.70;5.20;;;3.60;99.90;;;;;;5004270;28;21260;-71
2021/04/14 02:35:07;;;;;;;7.47;5.50;;;3.60;99.90;;;;;;5009737;28;20845;-70
2021/04/14 02:37:33;;;;;;;6.00;5.40;;;3.50;99.90;;;;;;5008418;28;20518;-70
2021/04/14 02:39:58;;;;;;;5.70;5.17;;;3.50;99.90;;;;;;5005665;28;20449;-71
2021/04/14 02:42:24;;;;;;;5.80;5.10;;;3.50;99.90;;;;;;5012309;28;20196;-72
2021/04/14 02:44:49;;;;;;;7.70;5.50;;;3.50;99.90;;;;;;5008297;28;20303;-70
2021/04/14 02:47:15;;;;;;;6.00;5.37;;;3.50;99.90;;;;;;5011428;28;20189;-71
2021/04/14 02:49:41;;;;;;;5.60;5.10;;;3.40;99.90;;;;;;5012273;28;20259;-71
2021/04/14 02:52:07;;;;;;;5.77;5.17;;;3.50;99.90;;;;;;5011623;28;20188;-71
2021/04/14 02:54:32;;;;;;;8.07;5.37;;;3.40;99.90;;;;;;5013764;28;20699;-71
2021/04/14 02:56:58;;;;;;;7.03;5.50;;;3.40;99.90;;;;;;5012957;28;20439;-71
2021/04/14 02:59:23;;;;;;;5.40;5.00;;;3.40;99.90;;;;;;5010232;28;20297;-69
2021/04/14 03:01:49;;;;;;;5.97;5.40;;;3.40;99.90;;;;;;5007577;28;20791;-71
2021/04/14 03:04:17;;;;;;;6.07;5.47;;;3.40;99.90;;;;;;5005830;28;20251;-71
2021/04/14 03:06:42;;;;;;;6.47;4.80;;;3.40;99.90;;;;;;5014629;28;20243;-72
2021/04/14 03:09:08;;;;;;;5.93;5.27;;;3.40;99.90;;;;;;5008410;28;20518;-70
2021/04/14 03:11:34;;;;;;;8.80;5.43;;;3.40;99.90;;;;;;5012168;28;20535;-69
2021/04/14 03:13:59;;;;;;;6.57;5.57;;;3.40;99.90;;;;;;5004266;28;20235;-71
2021/04/14 03:16:26;;;;;;;5.60;5.10;;;3.40;99.90;;;;;;5006422;28;20726;-70
2021/04/14 03:18:52;;;;;;;7.70;5.00;;;3.40;99.90;;;;;;5009934;28;20199;-70
2021/04/14 03:21:18;;;;;;;6.83;6.23;;;3.30;99.90;;;;;;5003559;28;20447;-71
2021/04/14 03:23:43;;;;;;;6.40;5.53;;;3.30;99.90;;;;;;5012527;28;20485;-70
2021/04/14 03:26:09;;;;;;;6.07;5.30;;;3.30;99.90;;;;;;5008580;28;20977;-70
2021/04/14 03:28:35;;;;;;;6.23;5.63;;;3.40;99.90;;;;;;5010371;28;20319;-70
2021/04/14 03:31:00;;;;;;;5.90;5.27;;;3.30;99.90;;;;;;5010524;28;20268;-69
2021/04/14 03:33:26;;;;;;;5.70;5.20;;;3.30;99.90;;;;;;5011500;28;22445;-70
2021/04/14 03:35:53;;;;;;;5.80;5.30;;;3.30;99.90;;;;;;5009628;28;20264;-71
2021/04/14 03:38:19;;;;;;;6.20;5.60;;;3.30;99.90;;;;;;5013132;28;20325;-70
2021/04/14 03:40:44;;;;;;;5.70;5.20;;;3.20;99.90;;;;;;5009260;28;20921;-71
2021/04/14 03:43:10;;;;;;;7.43;5.90;;;3.20;99.90;;;;;;5003964;28;20478;-70
2021/04/14 03:45:43;;;;;;;9.10;5.00;;;3.20;99.90;;;;;;5012581;28;20187;-70
2021/04/14 03:48:10;;;;;;;5.60;5.10;;;3.20;99.90;;;;;;5005196;28;20168;-70
2021/04/14 03:50:36;;;;;;;6.00;5.37;;;3.10;99.90;;;;;;5004287;28;20440;-69
2021/04/14 03:53:29;;;;;;;8.10;5.27;;;3.10;99.90;;;;;;5006052;28;20439;-69
2021/04/14 03:55:57;;;;;;;5.80;5.30;;;3.10;99.90;;;;;;5002931;28;20451;-71
2021/04/14 03:58:24;;;;;;;6.27;5.53;;;3.10;99.90;;;;;;5012794;28;20428;-70
2021/04/14 04:00:55;;;;;;;5.57;5.07;;;3.10;99.90;;;;;;5007398;28;20501;-70
2021/04/14 04:03:21;;;;;;;5.83;5.17;;;3.20;99.90;;;;;;5003879;28;20466;-70
2021/04/14 04:05:47;;;;;;;6.47;5.03;;;3.10;99.90;;;;;;5005833;28;20436;-71
2021/04/14 04:08:13;;;;;;;5.63;5.13;;;3.10;99.90;;;;;;5009452;28;21146;-69
2021/04/14 04:10:39;;;;;;;8.20;5.53;;;3.00;99.90;;;;;;5003863;28;20529;-70
2021/04/14 04:13:05;;;;;;;5.93;5.33;;;3.00;99.90;;;;;;5008582;28;20188;-70
2021/04/14 04:15:31;;;;;;;5.60;5.00;;;3.00;99.90;;;;;;5007008;28;20211;-71
2021/04/14 04:17:57;;;;;;;8.83;5.47;;;3.00;99.90;;;;;;5008496;28;20438;-71
2021/04/14 04:20:23;;;;;;;5.87;5.00;;;3.00;99.90;;;;;;5006811;28;20929;-70
2021/04/14 04:22:49;;;;;;;5.40;4.83;;;3.00;99.90;;;;;;5005871;28;20470;-70
2021/04/14 04:25:14;;;;;;;8.57;5.33;;;3.00;99.90;;;;;;5008745;28;20214;-72
2021/04/14 04:27:40;;;;;;;5.20;4.80;;;3.00;99.90;;;;;;5006633;28;22011;-71
2021/04/14 04:30:08;;;;;;;5.63;5.10;;;2.90;99.90;;;;;;5007944;28;20223;-70
2021/04/14 04:32:34;;;;;;;8.33;4.17;;;2.90;99.90;;;;;;5006416;28;20202;-70
2021/04/14 04:34:59;;;;;;;4.90;4.50;;;2.90;99.90;;;;;;5006424;28;20582;-71
2021/04/14 04:37:25;;;;;;;6.90;4.83;;;2.90;99.90;;;;;;5006019;28;20567;-69
2021/04/14 04:39:51;;;;;;;8.67;5.10;;;2.90;99.90;;;;;;5006532;28;20195;-71
2021/04/14 04:42:16;;;;;;;5.30;4.90;;;2.90;99.90;;;;;;5005838;28;20190;-71
2021/04/14 04:44:42;;;;;;;5.70;4.90;;;2.90;99.90;;;;;;5008067;28;20251;-70
2021/04/14 04:47:08;;;;;;;6.90;5.47;;;3.00;99.90;;;;;;5003307;28;20568;-71
2021/04/14 04:49:33;;;;;;;11.20;5.47;;;2.90;99.90;;;;;;5005204;28;20260;-71
2021/04/14 04:51:59;;;;;;;7.00;5.10;;;3.00;99.90;;;;;;5003433;28;21390;-70
2021/04/14 04:54:25;;;;;;;7.30;4.93;;;3.00;99.90;;;;;;5003289;28;20738;-70
2021/04/14 04:56:51;;;;;;;5.27;4.73;;;3.00;99.90;;;;;;5006212;28;20194;-70
2021/04/14 04:59:16;;;;;;;5.40;5.00;;;2.90;99.90;;;;;;5008520;28;21151;-72
2021/04/14 05:01:43;;;;;;;6.13;5.20;;;3.00;99.90;;;;;;5008493;28;20232;-69
2021/04/14 05:04:11;;;;;;;6.33;5.00;;;2.90;99.90;;;;;;5007241;28;20218;-71
2021/04/14 05:06:36;;;;;;;4.67;4.20;;;2.90;99.90;;;;;;5004509;28;20933;-69
2021/04/14 05:09:03;;;;;;;5.20;4.80;;;3.00;99.90;;;;;;5003557;28;20435;-70
2021/04/14 05:11:29;;;;;;;5.23;4.83;;;3.00;99.90;;;;;;5005930;28;20187;-71
2021/04/14 05:13:57;;;;;;;8.23;5.10;;;3.10;99.90;;;;;;5015298;28;20454;-72
2021/04/14 05:16:23;;;;;;;18.60;5.07;;;3.10;99.90;;;;;;5008717;28;20200;-69
2021/04/14 05:18:49;;;;;;;7.83;5.13;;;3.20;99.90;;;;;;5007032;28;20509;-71
2021/04/14 05:21:15;;;;;;;13.23;5.33;;;3.20;99.90;;;;;;5007075;28;20538;-71
2021/04/14 05:23:41;;;;;;;15.70;5.50;;;3.30;99.90;;;;;;5003165;28;20955;-70
2021/04/14 05:26:06;;;;;;;16.33;5.83;;;3.40;99.90;;;;;;5010049;28;20449;-70
2021/04/14 05:28:32;;;;;;;17.40;6.60;;;3.40;99.90;;;;;;5006688;28;20208;-70
2021/04/14 05:30:58;;;;;;;21.50;8.07;;;3.50;99.90;;;;;;5007192;28;20185;-70
2021/04/14 05:33:24;;;;;;;22.33;7.50;;;3.50;99.90;;;;;;5001641;28;20865;-71
2021/04/14 05:35:52;;;;;;;15.27;8.17;;;3.50;99.90;;;;;;5007172;28;20207;-73
2021/04/14 05:38:18;;;;;;;43.57;8.17;;;3.50;99.90;;;;;;5008465;28;21197;-71
2021/04/14 05:40:43;;;;;;;10.63;6.27;;;3.50;99.90;;;;;;5011390;28;20444;-71
2021/04/14 05:43:19;;;;;;;19.77;8.07;;;3.50;99.90;;;;;;5004822;28;20204;-72
2021/04/14 05:45:47;;;;;;;15.10;6.50;;;3.60;99.90;;;;;;5001213;28;20263;-71
2021/04/14 05:48:14;;;;;;;10.53;6.27;;;3.60;99.90;;;;;;5008525;28;20411;-72
2021/04/14 05:50:40;;;;;;;11.40;6.40;;;3.60;99.90;;;;;;5009514;28;20914;-71
2021/04/14 05:53:07;;;;;;;5.50;5.00;;;3.60;99.90;;;;;;5005911;28;20442;-71
2021/04/14 05:55:33;;;;;;;6.37;5.73;;;3.60;99.90;;;;;;5009489;28;20660;-71
2021/04/14 05:57:59;;;;;;;6.53;5.13;;;3.70;99.90;;;;;;5010239;28;20440;-72
2021/04/14 06:00:24;;;;;;;6.80;6.00;;;3.70;99.90;;;;;;5007948;28;20189;-70
2021/04/14 06:02:50;;;;;;;4.90;4.47;;;3.60;99.90;;;;;;5003232;28;20992;-70
2021/04/14 06:05:19;;;;;;;8.17;6.17;;;3.70;99.90;;;;;;5010417;28;20447;-71
2021/04/14 06:07:45;;;;;;;5.17;4.77;;;3.80;99.90;;;;;;5010406;28;20178;-71
2021/04/14 06:10:12;;;;;;;6.70;5.83;;;3.80;99.90;;;;;;5005117;28;20435;-74
2021/04/14 06:12:38;;;;;;;7.50;6.77;;;3.80;99.90;;;;;;5010210;28;20428;-71
2021/04/14 06:15:07;;;;;;;6.50;5.90;;;4.00;99.90;;;;;;5010170;28;20467;-71
2021/04/14 06:17:33;;;;;;;10.40;6.17;;;4.00;99.90;;;;;;5005020;28;20666;-70
2021/04/14 06:19:59;;;;;;;7.83;6.43;;;4.10;99.90;;;;;;5007848;28;20431;-70
2021/04/14 06:22:24;;;;;;;7.10;6.40;;;4.10;99.90;;;;;;5001165;28;20200;-70
2021/04/14 06:24:50;;;;;;;11.40;7.13;;;4.20;99.90;;;;;;5002873;28;20853;-71
2021/04/14 06:27:28;;;;;;;11.83;7.27;;;4.30;99.90;;;;;;5007746;28;20662;-71
2021/04/14 06:29:54;;;;;;;9.47;7.60;;;4.40;99.90;;;;;;5008729;28;20199;-71
2021/04/14 06:32:19;;;;;;;14.30;7.83;;;4.50;99.90;;;;;;4999318;28;20939;-70
2021/04/14 06:34:46;;;;;;;18.07;7.50;;;4.50;99.90;;;;;;5000631;28;20213;-71
2021/04/14 06:37:11;;;;;;;23.17;6.67;;;4.70;99.90;;;;;;5004841;28;20193;-72
2021/04/14 06:39:38;;;;;;;11.27;7.37;;;4.70;99.90;;;;;;5007775;28;21052;-70
2021/04/14 06:42:22;;;;;;;11.57;6.57;;;4.80;99.90;;;;;;5007946;28;20676;-69
2021/04/14 06:45:15;;;;;;;9.23;7.17;;;4.90;99.90;;;;;;5008424;28;20440;-71
2021/04/14 06:47:49;;;;;;;7.87;7.17;;;4.90;99.90;;;;;;4996357;28;20445;-71
2021/04/14 06:50:20;;;;;;;7.77;6.97;;;5.00;99.90;;;;;;5002169;28;20418;-71
2021/04/14 06:53:05;;;;;;;7.20;6.50;;;5.10;99.90;;;;;;5000638;28;20519;-71
2021/04/14 06:55:38;;;;;;;8.60;6.80;;;5.20;99.90;;;;;;5001379;28;20455;-70
2021/04/14 06:58:15;;;;;;;9.37;7.80;;;5.30;99.90;;;;;;4999637;28;20537;-70
2021/04/14 07:00:44;;;;;;;7.33;6.63;;;5.40;99.90;;;;;;5005794;28;20474;-70
2021/04/14 07:03:13;;;;;;;9.10;6.37;;;5.50;99.90;;;;;;5006183;28;20453;-69
2021/04/14 07:05:46;;;;;;;6.70;5.93;;;5.70;99.90;;;;;;5012991;28;20440;-71
2021/04/14 07:08:34;;;;;;;9.27;6.83;;;5.80;99.90;;;;;;5007999;28;20515;-69
2021/04/14 07:11:03;;;;;;;8.90;6.70;;;6.00;99.90;;;;;;5004577;28;20511;-71
2021/04/14 07:13:33;;;;;;;7.63;6.60;;;6.20;99.90;;;;;;5001920;28;20456;-70
2021/04/14 07:16:38;;;;;;;9.73;7.50;;;6.20;99.90;;;;;;5010453;28;20459;-70
2021/04/14 07:19:33;;;;;;;6.77;5.90;;;6.30;99.90;;;;;;4983313;28;20424;-71
2021/04/14 07:22:12;;;;;;;9.97;6.70;;;6.40;99.90;;;;;;4976035;28;21239;-71
2021/04/14 07:24:51;;;;;;;9.17;6.63;;;6.60;99.90;;;;;;5002188;28;20475;-69
2021/04/14 07:27:23;;;;;;;10.37;6.37;;;6.60;99.90;;;;;;5007454;28;21113;-73
2021/04/14 07:30:19;;;;;;;9.27;6.63;;;6.70;99.90;;;;;;5000143;28;20416;-71
2021/04/14 07:32:59;;;;;;;7.40;6.67;;;6.70;99.90;;;;;;4998315;28;20450;-72
2021/04/14 07:35:33;;;;;;;7.73;6.93;;;6.70;99.90;;;;;;5004380;28;20451;-71
2021/04/14 07:38:05;;;;;;;9.33;7.17;;;6.70;99.90;;;;;;5001204;28;20928;-71
2021/04/14 07:41:06;;;;;;;7.40;5.70;;;6.80;99.90;;;;;;5004859;28;20444;-71
2021/04/14 07:43:46;;;;;;;7.10;6.40;;;7.00;99.90;;;;;;4939722;28;20560;-70
2021/04/14 07:46:14;;;;;;;6.50;6.00;;;6.90;99.90;;;;;;4996618;28;20506;-71
2021/04/14 07:48:40;;;;;;;7.73;6.33;;;7.00;99.90;;;;;;5005932;28;20444;-71
2021/04/14 07:51:12;;;;;;;11.20;6.77;;;7.10;99.90;;;;;;5000495;28;20515;-71
2021/04/14 07:53:43;;;;;;;9.27;6.47;;;7.10;99.90;;;;;;5005920;28;20474;-72
2021/04/14 07:56:16;;;;;;;8.33;5.83;;;7.20;99.90;;;;;;5000841;28;20448;-72
2021/04/14 07:58:42;;;;;;;6.30;5.70;;;7.40;99.90;;;;;;5012481;28;20412;-72
2021/04/14 08:01:21;;;;;;;6.37;5.70;;;7.50;99.90;;;;;;5005365;28;20440;-71
2021/04/14 08:03:47;;;;;;;10.80;5.83;;;7.60;99.90;;;;;;5007083;28;20974;-71
2021/04/14 08:06:18;;;;;;;5.90;5.30;;;7.70;99.90;;;;;;5000575;28;20431;-71
2021/04/14 08:08:47;;;;;;;6.30;5.70;;;7.70;99.90;;;;;;5003364;28;20960;-71
2021/04/14 08:11:33;;;;;;;7.03;5.40;;;7.90;99.90;;;;;;5005698;28;20424;-71
2021/04/14 08:14:22;;;;;;;6.60;5.90;;;8.10;99.90;;;;;;5001800;28;21229;-70
2021/04/14 08:16:51;;;;;;;6.30;5.70;;;8.30;99.90;;;;;;5016017;28;20825;-71
2021/04/14 08:19:23;;;;;;;5.70;5.20;;;8.40;99.90;;;;;;5012673;28;20453;-70
2021/04/14 08:22:02;;;;;;;7.97;5.47;;;8.40;99.90;;;;;;5003705;28;20435;-71
2021/04/14 08:24:34;;;;;;;5.33;4.83;;;8.60;99.90;;;;;;5002534;28;20856;-73
2021/04/14 08:27:34;;;;;;;5.00;4.70;;;8.60;99.90;;;;;;5008203;28;20481;-71
2021/04/14 08:30:05;;;;;;;7.23;5.03;;;8.90;99.90;;;;;;5011010;28;20420;-70
2021/04/14 08:32:44;;;;;;;5.70;5.20;;;9.10;99.90;;;;;;5011456;28;20412;-69
2021/04/14 08:35:26;;;;;;;8.20;4.97;;;9.50;99.90;;;;;;5010579;28;20491;-72
2021/04/14 08:38:16;;;;;;;6.43;5.73;;;9.80;99.90;;;;;;5013429;28;20419;-71
2021/04/14 08:41:00;;;;;;;5.60;4.80;;;10.10;99.90;;;;;;5007867;28;20477;-71
2021/04/14 08:43:39;;;;;;;6.03;5.53;;;10.40;99.90;;;;;;5004987;28;21029;-71
2021/04/14 08:46:15;;;;;;;5.00;4.60;;;10.40;99.90;;;;;;4999857;28;20880;-67
2021/04/14 08:49:01;;;;;;;9.20;4.93;;;10.60;99.90;;;;;;4999211;28;20511;-71
2021/04/14 08:51:29;;;;;;;5.27;4.87;;;10.80;99.40;;;;;;4999625;28;20490;-71
2021/04/14 08:53:56;;;;;;;5.33;4.57;;;11.00;97.80;;;;;;4995494;28;20463;-70
2021/04/14 08:56:24;;;;;;;4.93;4.53;;;11.30;97.50;;;;;;5000512;28;20460;-70
2021/04/14 08:58:53;;;;;;;4.97;4.57;;;11.60;96.20;;;;;;4998267;28;20428;-71
2021/04/14 09:01:19;;;;;;;7.83;5.13;;;11.70;94.00;;;;;;4995820;28;20542;-70
2021/04/14 09:03:46;;;;;;;7.40;4.60;;;11.90;93.50;;;;;;4996000;28;20472;-72
2021/04/14 09:06:13;;;;;;;4.93;4.53;;;12.50;91.50;;;;;;4998552;28;20212;-72
2021/04/14 09:08:46;;;;;;;6.23;4.90;;;12.60;88.70;;;;;;4998622;28;20436;-69
2021/04/14 09:11:29;;;;;;;6.27;5.00;;;12.60;87.70;;;;;;4998784;28;20433;-70
2021/04/14 09:14:23;;;;;;;6.83;4.77;;;12.20;87.20;;;;;;5000983;28;20459;-71
2021/04/14 09:17:19;;;;;;;6.87;5.30;;;12.40;88.80;;;;;;5002082;28;20487;-71
2021/04/14 09:19:48;;;;;;;5.30;4.80;;;15.20;84.40;;;;;;4994200;28;20441;-70
2021/04/14 09:22:27;;;;;;;5.30;4.90;;;17.10;74.40;;;;;;5004646;28;20498;-68
2021/04/14 09:25:11;;;;;;;5.40;4.83;;;18.50;62.70;;;;;;5002721;28;20457;-70
2021/04/14 09:27:37;;;;;;;5.00;4.60;;;20.00;57.30;;;;;;5000756;28;20487;-71
2021/04/14 09:30:56;;;;;;;4.30;4.00;;;20.70;52.60;;;;;;4998946;28;20444;-71
2021/04/14 09:33:39;;;;;;;6.27;5.47;;;19.50;47.80;;;;;;4957795;28;20199;-68
2021/04/14 09:36:08;;;;;;;6.80;5.30;;;17.10;50.70;;;;;;4956508;28;20445;-72
2021/04/14 09:38:40;;;;;;;5.63;5.13;;;16.00;52.20;;;;;;4985601;28;20459;-70
2021/04/14 09:41:09;;;;;;;6.17;5.13;;;15.20;53.40;;;;;;5004130;28;20440;-69
2021/04/14 09:43:38;;;;;;;6.03;5.43;;;14.60;54.80;;;;;;5005727;28;20476;-70
2021/04/14 09:46:06;;;;;;;5.90;5.30;;;14.20;55.50;;;;;;5005994;28;20510;-72
2021/04/14 09:48:45;;;;;;;6.27;5.67;;;14.50;56.80;;;;;;4999852;28;20431;-70
2021/04/14 09:51:31;;;;;;;6.17;5.50;;;14.60;55.70;;;;;;5005856;28;20418;-70
2021/04/14 09:54:18;;;;;;;6.90;6.20;;;15.50;57.10;;;;;;5009936;28;20568;-69
2021/04/14 09:56:49;;;;;;;4.90;4.40;;;18.90;54.30;;;;;;5006248;28;20780;-69
2021/04/14 09:59:18;;;;;;;5.43;4.93;;;21.40;48.00;;;;;;5006937;28;20502;-71
2021/04/14 10:01:46;;;;;;;5.67;4.80;;;22.20;44.30;;;;;;5003012;28;21270;-72
2021/04/14 10:04:22;;;;;;;6.83;5.23;;;22.50;42.90;;;;;;5000369;28;20583;-71
2021/04/14 10:06:51;;;;;;;6.43;5.20;;;22.60;42.50;;;;;;5003496;28;20440;-70
2021/04/14 10:09:29;;;;;;;6.20;5.60;;;22.60;40.50;;;;;;5007441;28;20516;-67
2021/04/14 10:12:07;;;;;;;4.77;4.43;;;22.00;37.30;;;;;;5004126;28;20428;-70
2021/04/14 10:14:53;;;;;;;5.63;5.10;;;22.00;37.50;;;;;;5000722;28;20459;-71
2021/04/14 10:17:21;;;;;;;4.80;4.40;;;21.90;37.60;;;;;;5003615;28;20876;-70
2021/04/14 10:19:55;;;;;;;5.40;5.00;;;21.70;38.00;;;;;;5003855;28;20427;-71
2021/04/14 10:22:28;;;;;;;5.00;4.10;;;21.60;38.00;;;;;;5002225;28;20606;-70
2021/04/14 10:25:15;;;;;;;5.43;5.03;;;20.70;37.00;;;;;;5002785;28;20549;-69
2021/04/14 10:27:42;;;;;;;6.50;4.90;;;19.40;35.70;;;;;;5001410;28;20963;-69
2021/04/14 10:30:10;;;;;;;5.53;4.90;;;18.50;37.70;;;;;;5002516;28;20427;-70
2021/04/14 10:32:36;;;;;;;5.10;4.70;;;17.40;38.40;;;;;;4999185;28;20464;-70
2021/04/14 10:35:19;;;;;;;5.87;5.23;;;16.50;39.80;;;;;;4996622;28;20559;-70
2021/04/14 10:37:52;;;;;;;5.13;4.63;;;15.60;40.80;;;;;;5005508;28;20331;-70
2021/04/14 10:40:26;;;;;;;5.37;4.87;;;14.90;42.10;;;;;;5003075;28;20432;-71
2021/04/14 10:42:55;;;;;;;4.90;4.50;;;14.40;42.90;;;;;;5001576;28;20467;-71
2021/04/14 10:45:22;;;;;;;5.20;4.80;;;14.00;43.30;;;;;;5001681;28;20547;-69
2021/04/14 10:47:53;;;;;;;5.10;4.70;;;13.60;44.00;;;;;;5005424;28;20432;-72
2021/04/14 10:50:20;;;;;;;5.47;4.97;;;13.40;44.90;;;;;;5000287;28;20522;-69
2021/04/14 10:52:52;;;;;;;5.13;4.73;;;13.20;44.90;;;;;;5004623;28;20459;-69
2021/04/14 10:55:21;;;;;;;5.37;4.87;;;13.10;45.70;;;;;;5000794;28;20862;-69
2021/04/14 10:57:48;;;;;;;5.90;4.67;;;13.10;46.10;;;;;;5006250;28;20435;-70
2021/04/14 11:00:33;;;;;;;4.90;4.60;;;12.80;46.60;;;;;;4999487;28;20437;-69
2021/04/14 11:03:08;;;;;;;4.80;4.40;;;12.70;46.90;;;;;;5000915;28;20470;-70
2021/04/14 11:05:38;;;;;;;6.53;4.80;;;12.60;47.80;;;;;;5002304;28;22313;-68
2021/04/14 11:08:06;;;;;;;6.70;5.50;;;12.20;48.20;;;;;;5000839;28;20888;-67
2021/04/14 11:10:35;;;;;;;5.10;4.70;;;12.10;48.90;;;;;;5000874;28;20523;-70
2021/04/14 11:13:03;;;;;;;8.37;6.63;;;12.10;48.50;;;;;;5000681;28;20922;-69
2021/04/14 11:15:32;;;;;;;4.90;4.50;;;12.30;48.30;;;;;;5001042;28;21124;-70
2021/04/14 11:18:01;;;;;;;4.83;4.40;;;12.60;48.50;;;;;;5003063;28;20567;-69
2021/04/14 11:20:41;;;;;;;5.53;5.00;;;12.90;48.00;;;;;;5002810;28;20434;-72
2021/04/14 11:23:18;;;;;;;5.97;5.37;;;13.10;47.70;;;;;;5004332;28;20542;-71
2021/04/14 11:25:43;;;;;;;5.10;4.60;;;14.00;47.80;;;;;;5005905;28;20428;-70
2021/04/14 11:28:12;;;;;;;5.20;4.70;;;14.10;45.70;;;;;;5001541;28;20443;-70
2021/04/14 11:30:57;;;;;;;7.33;4.87;;;14.00;45.70;;;;;;5003317;28;20684;-73
2021/04/14 11:33:42;;;;;;;5.10;4.60;;;13.70;46.20;;;;;;5007435;28;21354;-71
2021/04/14 11:36:29;;;;;;;5.77;5.17;;;13.50;47.90;;;;;;5000159;28;20950;-71
2021/04/14 11:39:00;;;;;;;5.63;5.07;;;13.40;48.70;;;;;;5005608;28;20652;-70
2021/04/14 11:41:35;;;;;;;8.93;4.90;;;13.10;48.90;;;;;;5007047;28;20432;-69
2021/04/14 11:44:13;;;;;;;5.10;4.60;;;13.10;48.90;;;;;;4999996;28;20471;-71
2021/04/14 11:46:40;;;;;;;5.80;4.80;;;12.90;48.50;;;;;;5004390;28;20504;-72
2021/04/14 11:49:11;;;;;;;6.10;4.50;;;12.80;47.20;;;;;;5002954;28;20435;-70
2021/04/14 11:51:41;;;;;;;4.90;4.50;;;12.70;46.70;;;;;;5006744;28;20427;-71
2021/04/14 11:54:21;;;;;;;8.83;4.80;;;12.60;48.70;;;;;;5004489;28;20822;-71
2021/04/14 11:57:01;;;;;;;5.50;4.80;;;12.70;49.20;;;;;;5010336;28;20863;-71
2021/04/14 11:59:33;;;;;;;6.23;5.50;;;12.80;50.60;;;;;;5009491;28;20434;-71
2021/04/14 12:02:18;;;;;;;6.07;5.57;;;12.90;49.70;;;;;;5006020;28;20482;-73
2021/04/14 12:04:58;;;;;;;4.73;4.40;;;13.10;50.50;;;;;;5003282;28;20482;-71
2021/04/14 12:07:24;;;;;;;5.73;5.07;;;13.10;50.80;;;;;;4998946;28;20424;-72
2021/04/14 12:09:50;;;;;;;5.60;4.50;;;13.10;51.20;;;;;;5008173;28;20490;-70
2021/04/14 12:12:16;;;;;;;5.30;4.90;;;13.30;50.90;;;;;;5007175;28;20638;-72
2021/04/14 12:14:41;;;;;;;5.17;4.77;;;13.60;49.90;;;;;;5000431;28;20771;-72
2021/04/14 12:17:07;;;;;;;4.90;4.50;;;14.00;50.10;;;;;;5005300;28;20197;-71
2021/04/14 12:19:33;;;;;;;4.83;4.33;;;14.50;49.40;;;;;;5007757;28;20198;-70
2021/04/14 12:21:59;;;;;;;5.27;4.77;;;16.60;47.80;;;;;;4999122;28;20444;-72
2021/04/14 12:24:25;;;;;;;3.90;3.60;;;17.60;47.10;;;;;;4998308;28;20225;-70
2021/04/14 12:26:51;;;;;;;4.80;4.40;;;18.00;43.60;;;;;;5004106;28;20430;-70
2021/04/14 12:29:17;;;;;;;4.80;4.50;;;19.10;43.00;;;;;;4988875;28;20464;-69
2021/04/14 12:31:43;;;;;;;5.33;5.03;;;21.10;41.50;;;;;;4995114;28;22039;-71
2021/04/14 12:34:10;;;;;;;5.33;4.83;;;22.90;40.40;;;;;;4995688;28;20207;-70
2021/04/14 12:36:37;;;;;;;5.60;5.10;;;21.90;38.00;;;;;;4997717;28;20468;-72
2021/04/14 12:39:04;;;;;;;5.07;4.67;;;20.10;37.20;;;;;;4991040;28;20898;-72
2021/04/14 12:41:30;;;;;;;5.27;4.87;;;18.60;38.30;;;;;;4996493;28;20439;-72
2021/04/14 12:43:56;;;;;;;4.90;4.60;;;17.70;39.90;;;;;;4997492;28;20461;-70
2021/04/14 12:46:21;;;;;;;4.90;4.60;;;16.90;40.20;;;;;;4999974;28;20437;-71
2021/04/14 12:48:50;;;;;;;5.03;4.43;;;16.40;41.10;;;;;;4999792;28;20264;-72
2021/04/14 12:51:35;;;;;;;5.50;4.97;;;15.90;41.40;;;;;;5003066;28;20177;-72
2021/04/14 12:54:13;;;;;;;4.77;4.30;;;15.70;41.40;;;;;;5001999;28;20448;-72
2021/04/14 12:56:45;;;;;;;4.60;4.30;;;15.40;42.00;;;;;;4998506;28;20416;-73
2021/04/14 12:59:19;;;;;;;4.60;4.30;;;15.00;41.10;;;;;;4998639;28;20427;-72
2021/04/14 13:01:47;;;;;;;4.63;4.33;;;14.50;38.20;;;;;;4998165;28;20471;-73
2021/04/14 13:04:32;;;;;;;4.90;4.50;;;14.30;37.30;;;;;;4997621;28;20533;-72
2021/04/14 13:07:02;;;;;;;4.90;4.50;;;13.90;37.90;;;;;;5007905;28;20439;-71
2021/04/14 13:09:30;;;;;;;4.80;4.50;;;13.60;38.50;;;;;;5005472;28;20415;-72